Time;durP1;ratioP1;P1;durP2;ratioP2;P2;SDS_P1;SDS_P2;PMS_P1;PMS_P2;Temp;Humidity;BMP_temperature;BMP_pressure;BME280_temperature;BME280_humidity;BME280_pressure;Samples;Min_cycle;Max_cycle;Signal;HPM_P1;HPM_P2
2023/03/17 00:02:00;;;;;;;0.30;0.30;;;;;;;7.30;47.41;100555.56;5055463;28;20041;-62
2023/03/17 00:04:28;;;;;;;0.20;0.20;;;;;;;7.30;46.63;100549.22;5055441;28;20033;-61
2023/03/17 00:06:54;;;;;;;0.20;0.20;;;;;;;7.22;46.73;100552.81;5055442;28;20024;-62
2023/03/17 00:09:24;;;;;;;0.30;0.30;;;;;;;7.14;46.85;100554.47;5055231;28;20382;-62
2023/03/17 00:11:55;;;;;;;0.30;0.30;;;;;;;7.06;47.31;100567.19;5055467;28;20544;-62
2023/03/17 00:14:26;;;;;;;0.20;0.20;;;;;;;7.14;47.59;100562.78;5055478;28;20052;-62
2023/03/17 00:16:55;;;;;;;0.20;0.20;;;;;;;7.02;47.21;100570.94;5055135;28;20115;-62
2023/03/17 00:19:30;;;;;;;0.20;0.20;;;;;;;7.03;47.81;100569.78;5056139;28;20039;-62
2023/03/17 00:21:59;;;;;;;0.20;0.20;;;;;;;6.88;48.49;100564.81;5055394;28;20367;-62
2023/03/17 00:24:25;;;;;;;0.20;0.20;;;;;;;6.91;47.22;100559.41;5056286;28;20040;-62
2023/03/17 00:26:50;;;;;;;0.20;0.20;;;;;;;6.99;47.61;100557.78;5054729;28;20029;-62
2023/03/17 00:29:16;;;;;;;0.20;0.20;;;;;;;6.85;48.67;100565.44;5054333;28;20060;-62
2023/03/17 00:31:45;;;;;;;0.30;0.30;;;;;;;7.12;47.79;100555.94;5054612;28;20035;-62
2023/03/17 00:34:15;;;;;;;0.30;0.30;;;;;;;6.95;48.40;100562.34;5054823;28;20043;-62
2023/03/17 00:36:44;;;;;;;0.20;0.20;;;;;;;6.88;48.56;100564.81;5055041;28;20116;-61
2023/03/17 00:39:17;;;;;;;0.20;0.20;;;;;;;6.91;48.60;100566.88;5054724;28;20057;-62
2023/03/17 00:41:43;;;;;;;0.30;0.30;;;;;;;6.83;49.08;100555.53;5054907;28;20029;-62
2023/03/17 00:44:13;;;;;;;0.20;0.20;;;;;;;6.91;48.01;100553.88;5054375;28;20468;-62
2023/03/17 00:46:41;;;;;;;0.30;0.30;;;;;;;6.90;48.74;100554.22;5054819;28;20025;-62
2023/03/17 00:49:22;;;;;;;0.30;0.30;;;;;;;6.94;48.87;100560.72;5054570;28;20140;-62
2023/03/17 00:51:48;;;;;;;0.22;0.22;;;;;;;6.86;49.40;100561.53;5054203;28;20494;-62
2023/03/17 00:54:15;;;;;;;0.30;0.30;;;;;;;6.88;50.19;100560.06;5054446;28;20076;-62
2023/03/17 00:56:47;;;;;;;0.28;0.28;;;;;;;6.97;50.60;100546.22;5054135;28;20075;-62
2023/03/17 00:59:25;;;;;;;0.30;0.30;;;;;;;6.94;50.53;100552.41;5068726;28;20102;-62
2023/03/17 01:01:54;;;;;;;0.20;0.20;;;;;;;7.09;50.15;100566.53;5074065;28;20017;-62
2023/03/17 01:04:20;;;;;;;0.20;0.20;;;;;;;7.08;49.91;100550.25;5074228;28;20036;-62
2023/03/17 01:06:49;;;;;;;0.20;0.20;;;;;;;6.83;50.40;100547.22;5074237;28;20025;-63
2023/03/17 01:09:19;;;;;;;0.20;0.20;;;;;;;6.81;51.19;100532.91;5074146;28;20074;-62
2023/03/17 01:11:45;;;;;;;0.20;0.20;;;;;;;6.76;51.80;100552.44;5074194;28;20036;-62
2023/03/17 01:14:14;;;;;;;0.20;0.20;;;;;;;6.95;50.96;100541.00;5074127;28;20464;-62
2023/03/17 01:16:40;;;;;;;0.20;0.20;;;;;;;7.05;50.54;100542.63;5074468;28;20028;-62
2023/03/17 01:19:06;;;;;;;0.20;0.20;;;;;;;6.87;50.41;100552.09;5074349;28;20032;-62
2023/03/17 01:21:31;;;;;;;0.20;0.20;;;;;;;6.69;50.78;100540.25;5074003;28;20024;-62
2023/03/17 01:23:57;;;;;;;0.20;0.20;;;;;;;6.83;49.29;100538.13;5073796;28;20041;-62
2023/03/17 01:26:28;;;;;;;0.20;0.20;;;;;;;6.88;50.17;100528.84;5073680;28;20040;-62
2023/03/17 01:28:57;;;;;;;0.30;0.30;;;;;;;6.79;51.36;100523.31;5073792;28;20028;-62
2023/03/17 01:31:28;;;;;;;0.20;0.20;;;;;;;6.80;52.01;100522.97;5073434;28;20471;-62
2023/03/17 01:34:01;;;;;;;0.28;0.28;;;;;;;6.73;51.43;100530.97;5073433;28;20056;-62
2023/03/17 01:36:29;;;;;;;0.20;0.20;;;;;;;6.65;51.41;100526.25;5073639;28;20491;-63
2023/03/17 01:38:55;;;;;;;0.30;0.30;;;;;;;6.65;52.73;100520.72;5073546;28;20039;-62
2023/03/17 01:41:23;;;;;;;0.20;0.20;;;;;;;6.75;52.64;100522.34;5073681;28;20021;-62
2023/03/17 01:43:51;;;;;;;0.25;0.25;;;;;;;6.85;52.81;100515.66;5073146;28;20040;-62
2023/03/17 01:46:23;;;;;;;0.20;0.20;;;;;;;6.67;51.42;100479.75;5074035;28;20020;-63
2023/03/17 01:49:08;;;;;;;0.20;0.20;;;;;;;6.68;52.69;100517.31;5073694;28;20028;-62
2023/03/17 01:51:50;;;;;;;0.25;0.25;;;;;;;6.73;52.22;100508.03;5073326;28;20506;-62
2023/03/17 01:54:33;;;;;;;0.20;0.20;;;;;;;6.68;53.14;100516.50;5074307;28;20129;-62
2023/03/17 01:57:14;;;;;;;0.30;0.30;;;;;;;6.69;53.02;100510.66;5072867;28;20032;-62
2023/03/17 01:59:49;;;;;;;0.30;0.30;;;;;;;6.66;52.97;100503.03;5093070;28;20075;-62
2023/03/17 02:02:21;;;;;;;0.20;0.20;;;;;;;6.51;53.20;100511.84;5076846;28;20485;-62
2023/03/17 02:04:51;;;;;;;0.20;0.20;;;;;;;6.43;53.62;100509.88;5078474;28;20454;-64
2023/03/17 02:07:19;;;;;;;0.20;0.20;;;;;;;6.41;53.62;100501.13;5098126;28;20493;-63
2023/03/17 02:09:45;;;;;;;0.20;0.20;;;;;;;6.38;53.59;100497.03;5095170;28;20386;-62
2023/03/17 02:12:14;;;;;;;0.20;0.20;;;;;;;6.43;53.90;100496.06;5076187;28;20027;-62
2023/03/17 02:14:45;;;;;;;0.30;0.30;;;;;;;6.49;53.58;100498.31;5076690;28;20024;-64
2023/03/17 02:17:14;;;;;;;0.20;0.20;;;;;;;6.48;53.62;100495.88;5076478;28;20026;-62
2023/03/17 02:19:47;;;;;;;0.28;0.28;;;;;;;6.53;52.82;100487.44;5078637;28;20036;-62
2023/03/17 02:22:15;;;;;;;0.20;0.20;;;;;;;6.41;53.25;100490.06;5076696;28;20111;-63
2023/03/17 02:24:46;;;;;;;0.20;0.20;;;;;;;6.36;53.27;100482.75;5076290;28;20462;-63
2023/03/17 02:27:21;;;;;;;0.20;0.20;;;;;;;6.19;53.59;100467.00;5093305;28;20040;-62
2023/03/17 02:29:50;;;;;;;0.20;0.20;;;;;;;6.21;53.46;100492.34;5093546;28;20024;-62
2023/03/17 02:32:18;;;;;;;0.20;0.20;;;;;;;6.19;53.46;100482.78;5075794;28;20020;-63
2023/03/17 02:34:49;;;;;;;0.20;0.20;;;;;;;6.20;53.92;100496.25;5093726;28;20485;-62
2023/03/17 02:37:19;;;;;;;0.30;0.30;;;;;;;6.26;52.57;100494.13;5075879;28;20017;-62
2023/03/17 02:39:45;;;;;;;0.20;0.20;;;;;;;6.25;51.31;100503.56;5076372;28;20028;-62
2023/03/17 02:42:11;;;;;;;0.30;0.30;;;;;;;6.24;52.41;100491.69;5093135;28;20027;-61
2023/03/17 02:44:37;;;;;;;0.28;0.28;;;;;;;6.21;52.92;100495.09;5075403;28;20490;-61
2023/03/17 02:47:06;;;;;;;0.20;0.20;;;;;;;6.32;54.00;100495.59;5076051;28;20020;-62
2023/03/17 02:49:40;;;;;;;0.30;0.30;;;;;;;6.52;53.15;100494.09;5075618;28;20028;-62
2023/03/17 02:52:11;;;;;;;0.20;0.20;;;;;;;6.49;53.74;100503.03;5093116;28;20024;-63
2023/03/17 02:54:39;;;;;;;0.30;0.30;;;;;;;6.44;53.57;100492.97;5093769;28;20057;-61
2023/03/17 02:57:10;;;;;;;0.30;0.30;;;;;;;6.43;53.20;100493.28;5075318;28;20028;-62
2023/03/17 02:59:38;;;;;;;0.20;0.20;;;;;;;6.33;53.43;100493.63;5075183;28;20101;-62
2023/03/17 03:02:04;;;;;;;0.30;0.30;;;;;;;6.38;53.64;100496.22;5075569;28;20069;-61
2023/03/17 03:04:32;;;;;;;0.20;0.20;;;;;;;6.46;53.38;100489.88;5075804;28;20028;-62
2023/03/17 03:07:05;;;;;;;0.25;0.25;;;;;;;6.45;53.36;100491.03;5075215;28;20063;-62
2023/03/17 03:09:35;;;;;;;0.20;0.20;;;;;;;6.49;53.74;100503.84;5075811;28;20032;-61
2023/03/17 03:12:08;;;;;;;0.20;0.20;;;;;;;6.36;54.12;100491.03;5076051;28;20020;-61
2023/03/17 03:14:34;;;;;;;0.28;0.28;;;;;;;6.36;54.13;100504.03;5093542;28;20028;-62
2023/03/17 03:17:05;;;;;;;0.20;0.20;;;;;;;6.24;53.42;100505.53;5092243;28;20067;-61
2023/03/17 03:19:33;;;;;;;0.20;0.20;;;;;;;6.25;53.72;100518.19;5075621;28;20085;-62
2023/03/17 03:22:00;;;;;;;0.30;0.30;;;;;;;6.17;53.63;100502.41;5075330;28;20466;-62
2023/03/17 03:24:28;;;;;;;0.20;0.20;;;;;;;6.13;53.91;100512.50;5075565;28;20036;-62
2023/03/17 03:26:56;;;;;;;0.20;0.20;;;;;;;6.21;54.76;100514.44;5074979;28;20474;-61
2023/03/17 03:29:25;;;;;;;0.30;0.30;;;;;;;6.23;55.27;100527.94;5075295;28;20466;-61
2023/03/17 03:31:53;;;;;;;0.30;0.30;;;;;;;6.18;55.21;100520.63;5075284;28;20116;-62
2023/03/17 03:34:21;;;;;;;0.30;0.30;;;;;;;6.24;55.02;100522.09;5075260;28;20040;-62
2023/03/17 03:36:48;;;;;;;0.20;0.20;;;;;;;6.18;54.60;100515.13;5075873;28;20115;-62
2023/03/17 03:39:16;;;;;;;0.30;0.30;;;;;;;6.23;55.79;100511.34;5075778;28;20032;-62
2023/03/17 03:41:42;;;;;;;0.20;0.20;;;;;;;6.22;55.89;100513.31;5092283;28;20085;-61
2023/03/17 03:44:12;;;;;;;0.30;0.30;;;;;;;6.26;54.84;100519.00;5078806;28;20040;-61
2023/03/17 03:46:46;;;;;;;0.20;0.20;;;;;;;6.26;55.42;100517.03;5097298;28;20032;-61
2023/03/17 03:49:16;;;;;;;0.20;0.20;;;;;;;6.42;54.75;100522.09;5079044;28;20046;-62
2023/03/17 03:51:42;;;;;;;0.28;0.28;;;;;;;6.33;55.39;100526.78;5078733;28;20076;-62
2023/03/17 03:54:11;;;;;;;0.20;0.20;;;;;;;6.29;54.86;100524.69;5078758;28;20036;-62
2023/03/17 03:56:39;;;;;;;0.30;0.30;;;;;;;6.35;54.11;100524.53;5095869;28;20383;-61
2023/03/17 03:59:07;;;;;;;0.20;0.20;;;;;;;6.37;54.61;100513.94;5078257;28;20051;-62
2023/03/17 04:01:37;;;;;;;0.20;0.20;;;;;;;6.24;53.82;100518.53;5096942;28;20058;-61
2023/03/17 04:04:08;;;;;;;0.20;0.20;;;;;;;6.22;54.47;100516.06;5095112;28;20043;-62
2023/03/17 04:06:38;;;;;;;0.30;0.30;;;;;;;6.11;55.67;100514.78;5095919;28;20462;-62
2023/03/17 04:09:08;;;;;;;0.20;0.20;;;;;;;6.22;55.96;100515.25;5078930;28;20050;-62
2023/03/17 04:11:38;;;;;;;0.30;0.30;;;;;;;6.21;55.39;100511.69;5078430;28;20081;-62
2023/03/17 04:14:05;;;;;;;0.20;0.20;;;;;;;6.07;56.40;100513.78;5078424;28;20028;-62
2023/03/17 04:16:31;;;;;;;0.25;0.25;;;;;;;6.14;56.57;100514.13;5079199;28;20028;-62
2023/03/17 04:18:57;;;;;;;0.20;0.20;;;;;;;6.17;55.49;100502.41;5095498;28;20197;-62
2023/03/17 04:21:25;;;;;;;0.20;0.20;;;;;;;6.21;54.63;100514.44;5078580;28;20455;-62
2023/03/17 04:23:53;;;;;;;0.20;0.20;;;;;;;6.16;55.20;100514.59;5079125;28;20123;-62
2023/03/17 04:26:22;;;;;;;0.20;0.20;;;;;;;6.16;54.78;100517.38;5078936;28;20085;-62
2023/03/17 04:28:51;;;;;;;0.30;0.30;;;;;;;6.23;54.83;100517.72;5079048;28;20042;-61
2023/03/17 04:31:22;;;;;;;0.28;0.28;;;;;;;6.22;54.90;100510.53;5096566;28;20067;-61
2023/03/17 04:33:50;;;;;;;0.20;0.20;;;;;;;6.18;54.67;100515.13;5094866;28;20040;-62
2023/03/17 04:36:18;;;;;;;0.30;0.30;;;;;;;6.11;54.84;100503.72;5077966;28;20115;-61
2023/03/17 04:38:46;;;;;;;0.20;0.20;;;;;;;6.20;55.31;100504.53;5078208;28;20097;-61
2023/03/17 04:41:12;;;;;;;0.20;0.20;;;;;;;6.20;55.31;100510.06;5078038;28;20024;-65
2023/03/17 04:43:45;;;;;;;0.30;0.30;;;;;;;6.21;54.98;100505.34;5077916;28;20032;-62
2023/03/17 04:46:13;;;;;;;0.30;0.30;;;;;;;6.12;56.12;100502.56;5078978;28;20024;-62
2023/03/17 04:48:41;;;;;;;0.20;0.20;;;;;;;6.15;56.79;100496.41;5078791;28;20032;-62
2023/03/17 04:51:06;;;;;;;0.20;0.20;;;;;;;6.18;55.49;100503.22;5096377;28;20093;-65
2023/03/17 04:53:34;;;;;;;0.20;0.20;;;;;;;6.21;56.35;100497.88;5077153;28;20409;-62
2023/03/17 04:56:02;;;;;;;0.22;0.22;;;;;;;6.10;57.21;100501.28;5078091;28;20028;-61
2023/03/17 04:58:33;;;;;;;0.20;0.20;;;;;;;6.22;56.75;100491.19;5049325;28;20056;-62
2023/03/17 05:01:01;;;;;;;0.20;0.20;;;;;;;6.03;56.50;100493.50;5057241;28;20022;-64
2023/03/17 05:03:32;;;;;;;0.20;0.20;;;;;;;6.09;57.34;100489.44;5059174;28;20078;-62
2023/03/17 05:05:58;;;;;;;0.20;0.20;;;;;;;6.10;57.29;100485.53;5057000;28;20029;-61
2023/03/17 05:08:27;;;;;;;0.20;0.20;;;;;;;6.09;57.25;100486.66;5054665;28;20044;-62
2023/03/17 05:10:57;;;;;;;0.30;0.30;;;;;;;6.04;57.41;100492.34;5054485;28;20033;-62
2023/03/17 05:13:23;;;;;;;0.25;0.25;;;;;;;6.00;58.66;100496.91;5053918;28;20115;-62
2023/03/17 05:15:52;;;;;;;0.20;0.20;;;;;;;6.06;59.13;100490.06;5053800;28;20036;-62
2023/03/17 05:18:20;;;;;;;0.30;0.30;;;;;;;6.10;58.62;100499.34;5053808;28;20041;-62
2023/03/17 05:20:46;;;;;;;0.30;0.30;;;;;;;5.98;57.84;100501.94;5054457;28;20052;-61
2023/03/17 05:23:11;;;;;;;0.30;0.30;;;;;;;6.03;57.86;100507.31;5054028;28;20467;-63
2023/03/17 05:25:40;;;;;;;0.20;0.20;;;;;;;6.06;58.16;100495.59;5053887;28;20032;-62
2023/03/17 05:28:12;;;;;;;0.20;0.20;;;;;;;6.43;57.59;100502.41;5053566;28;20467;-62
2023/03/17 05:30:37;;;;;;;0.20;0.20;;;;;;;7.39;54.13;100507.63;5053701;28;20036;-62
2023/03/17 05:33:03;;;;;;;0.20;0.20;;;;;;;8.12;51.31;100517.25;5053734;28;20033;-61
2023/03/17 05:35:29;;;;;;;0.20;0.20;;;;;;;8.66;48.66;100508.16;5053997;28;20029;-62
2023/03/17 05:37:55;;;;;;;0.30;0.30;;;;;;;9.05;47.91;100514.25;5053685;28;20394;-61
2023/03/17 05:40:22;;;;;;;0.28;0.28;;;;;;;9.19;48.16;100517.53;5053543;28;20075;-61
2023/03/17 05:42:50;;;;;;;0.20;0.20;;;;;;;9.91;46.04;100504.78;5053286;28;20032;-62
2023/03/17 05:45:18;;;;;;;0.30;0.30;;;;;;;10.70;44.11;100507.84;5053249;28;20081;-62
2023/03/17 05:47:47;;;;;;;0.30;0.30;;;;;;;11.26;42.62;100518.09;5053473;28;20380;-62
2023/03/17 05:50:12;;;;;;;0.20;0.20;;;;;;;11.73;41.77;100518.03;5053121;28;20041;-61
2023/03/17 05:52:42;;;;;;;0.20;0.20;;;;;;;11.92;40.41;100524.84;5053060;28;20082;-62
2023/03/17 05:55:08;;;;;;;0.20;0.20;;;;;;;12.54;40.43;100526.59;5053570;28;20152;-62
2023/03/17 05:57:34;;;;;;;0.20;0.20;;;;;;;13.05;39.14;100523.59;5055143;28;20032;-62
2023/03/17 06:00:03;;;;;;;0.20;0.20;;;;;;;13.29;37.95;100532.81;5053236;28;20191;-62
2023/03/17 06:02:31;;;;;;;0.20;0.20;;;;;;;13.44;37.93;100533.88;5053054;28;20037;-62
2023/03/17 06:04:56;;;;;;;0.20;0.20;;;;;;;13.71;37.56;100540.31;5054473;28;20029;-62
2023/03/17 06:07:25;;;;;;;0.20;0.20;;;;;;;14.04;37.65;100523.63;5053184;28;20468;-62
2023/03/17 06:09:56;;;;;;;0.30;0.30;;;;;;;14.37;37.07;100530.44;5053412;28;20037;-61
2023/03/17 06:12:25;;;;;;;0.20;0.20;;;;;;;15.01;36.08;100530.44;5052739;28;20021;-61
2023/03/17 06:14:53;;;;;;;0.20;0.20;;;;;;;15.52;35.01;100533.31;5054093;28;20029;-61
2023/03/17 06:17:21;;;;;;;0.28;0.28;;;;;;;15.36;34.57;100535.59;5052713;28;20040;-62
2023/03/17 06:19:52;;;;;;;0.20;0.20;;;;;;;16.15;34.24;100543.41;5052938;28;20102;-62
2023/03/17 06:22:20;;;;;;;0.20;0.20;;;;;;;16.61;32.93;100551.25;5052743;28;20383;-62
2023/03/17 06:24:47;;;;;;;0.20;0.20;;;;;;;16.90;33.00;100555.00;5052853;28;20430;-62
2023/03/17 06:27:15;;;;;;;0.20;0.20;;;;;;;17.05;32.28;100553.06;5052762;28;20025;-62
2023/03/17 06:29:43;;;;;;;0.20;0.20;;;;;;;17.54;31.25;100551.50;5052475;28;20036;-62
2023/03/17 06:32:12;;;;;;;0.20;0.20;;;;;;;17.76;31.55;100555.94;5052429;28;20032;-62
2023/03/17 06:34:37;;;;;;;0.20;0.20;;;;;;;17.28;31.26;100549.88;5052736;28;20040;-63
2023/03/17 06:37:05;;;;;;;0.20;0.20;;;;;;;17.25;31.79;100559.09;5052472;28;20036;-60
2023/03/17 06:39:31;;;;;;;0.20;0.20;;;;;;;17.26;31.08;100564.34;5052761;28;20033;-62
2023/03/17 06:42:00;;;;;;;0.20;0.20;;;;;;;17.95;30.78;100565.16;5052272;28;20102;-62
2023/03/17 06:44:30;;;;;;;0.20;0.20;;;;;;;18.39;30.02;100575.16;5052074;28;20033;-62
2023/03/17 06:46:59;;;;;;;0.20;0.20;;;;;;;18.42;29.81;100574.31;5053758;28;20111;-62
2023/03/17 06:49:27;;;;;;;0.20;0.20;;;;;;;18.68;29.46;100568.22;5052754;28;20033;-62
2023/03/17 06:51:54;;;;;;;0.20;0.20;;;;;;;18.58;29.25;100577.50;5052641;28;20034;-62
2023/03/17 06:54:24;;;;;;;0.20;0.20;;;;;;;17.98;29.46;100575.63;5052042;28;20029;-61
2023/03/17 06:56:51;;;;;;;0.20;0.20;;;;;;;19.14;28.07;100586.94;5052005;28;20475;-62
2023/03/17 06:59:18;;;;;;;0.20;0.20;;;;;;;18.87;27.89;100583.06;5064789;28;20048;-62
2023/03/17 07:01:47;;;;;;;0.20;0.20;;;;;;;17.63;29.12;100580.06;5071836;28;20020;-62
2023/03/17 07:04:18;;;;;;;0.20;0.20;;;;;;;17.39;28.78;100586.44;5072418;28;20541;-61
2023/03/17 07:06:46;;;;;;;0.20;0.20;;;;;;;17.35;28.88;100586.44;5072254;28;20032;-62
2023/03/17 07:09:17;;;;;;;0.20;0.20;;;;;;;18.57;27.75;100587.16;5072397;28;20123;-62
2023/03/17 07:11:43;;;;;;;0.20;0.20;;;;;;;18.03;27.72;100586.50;5071910;28;20115;-62
2023/03/17 07:14:11;;;;;;;0.20;0.20;;;;;;;18.19;27.27;100595.31;5071839;28;20123;-62
2023/03/17 07:16:39;;;;;;;0.20;0.20;;;;;;;18.01;27.68;100586.09;5072044;28;20028;-62
2023/03/17 07:19:07;;;;;;;0.20;0.20;;;;;;;18.42;26.50;100588.41;5076319;28;20060;-62
2023/03/17 07:21:34;;;;;;;0.20;0.20;;;;;;;18.39;27.50;100592.06;5075840;28;20028;-62
2023/03/17 07:24:05;;;;;;;0.20;0.20;;;;;;;18.99;25.96;100594.66;5075533;28;20032;-62
2023/03/17 07:26:32;;;;;;;0.20;0.20;;;;;;;19.31;25.82;100602.16;5075296;28;20028;-62
2023/03/17 07:29:03;;;;;;;0.20;0.20;;;;;;;19.30;25.89;100601.34;5076118;28;20223;-60
2023/03/17 07:31:28;;;;;;;0.20;0.20;;;;;;;19.99;25.40;100601.69;5075750;28;20036;-60
2023/03/17 07:33:56;;;;;;;0.20;0.20;;;;;;;20.34;24.44;100612.63;5075138;28;20048;-61
2023/03/17 07:36:22;;;;;;;0.20;0.20;;;;;;;20.17;24.00;100599.47;5075942;28;20031;-61
2023/03/17 07:38:48;;;;;;;0.20;0.20;;;;;;;18.41;26.00;100603.72;5075394;28;20465;-61
2023/03/17 07:41:13;;;;;;;0.20;0.20;;;;;;;18.27;26.60;100593.31;5075158;28;20020;-61
2023/03/17 07:43:42;;;;;;;0.20;0.20;;;;;;;18.57;26.52;100604.06;5075626;28;20038;-62
2023/03/17 07:46:10;;;;;;;0.20;0.20;;;;;;;19.07;24.59;100603.91;5075551;28;20024;-62
2023/03/17 07:48:39;;;;;;;0.20;0.20;;;;;;;17.83;26.92;100602.97;5075707;28;20491;-61
2023/03/17 07:51:11;;;;;;;0.20;0.20;;;;;;;17.68;27.33;100593.69;5075164;28;20031;-60
2023/03/17 07:53:45;;;;;;;0.20;0.20;;;;;;;17.58;26.84;100594.53;5075104;28;20380;-61
2023/03/17 07:56:14;;;;;;;0.20;0.20;;;;;;;18.04;26.58;100599.34;5075999;28;20090;-61
2023/03/17 07:58:40;;;;;;;0.20;0.20;;;;;;;18.51;26.46;100600.06;5066667;28;20069;-61
2023/03/17 08:01:09;;;;;;;0.20;0.20;;;;;;;18.72;26.52;100600.03;5054974;28;20100;-61
2023/03/17 08:03:37;;;;;;;0.20;0.20;;;;;;;19.34;25.58;100607.78;5055418;28;20028;-61
2023/03/17 08:06:07;;;;;;;0.20;0.20;;;;;;;20.10;24.38;100599.56;5055100;28;20033;-61
2023/03/17 08:08:35;;;;;;;0.10;0.10;;;;;;;20.75;23.28;100592.00;5054785;28;20032;-61
2023/03/17 08:11:03;;;;;;;0.20;0.20;;;;;;;19.30;24.08;100594.91;5056599;28;20064;-61
2023/03/17 08:13:34;;;;;;;0.20;0.20;;;;;;;18.68;24.28;100593.59;5054795;28;20029;-61
2023/03/17 08:16:02;;;;;;;0.20;0.20;;;;;;;18.13;25.98;100591.31;5054651;28;20068;-61
2023/03/17 08:18:30;;;;;;;0.20;0.20;;;;;;;18.21;25.59;100587.25;5054869;28;20044;-61
2023/03/17 08:21:01;;;;;;;0.20;0.20;;;;;;;19.30;25.31;100584.44;5054518;28;20017;-61
2023/03/17 08:23:32;;;;;;;0.20;0.20;;;;;;;19.22;23.68;100596.97;5054237;28;20045;-62
2023/03/17 08:26:02;;;;;;;0.20;0.20;;;;;;;19.13;24.20;100605.09;5054873;28;20482;-62
2023/03/17 08:28:28;;;;;;;0.20;0.20;;;;;;;18.61;24.98;100593.59;5055038;28;20434;-61
2023/03/17 08:31:04;;;;;;;0.20;0.20;;;;;;;19.97;24.42;100581.50;5055096;28;20021;-62
2023/03/17 08:33:34;;;;;;;0.20;0.20;;;;;;;20.38;23.27;100590.78;5054473;28;20039;-61
2023/03/17 08:36:05;;;;;;;0.10;0.10;;;;;;;20.00;23.10;100578.66;5054678;28;20028;-61
2023/03/17 08:38:38;;;;;;;0.20;0.20;;;;;;;19.61;23.91;100579.00;5054379;28;20036;-61
2023/03/17 08:41:05;;;;;;;0.20;0.20;;;;;;;18.33;23.27;100577.59;5055247;28;20109;-61
2023/03/17 08:43:32;;;;;;;0.20;0.20;;;;;;;17.71;23.27;100581.66;5055827;28;20033;-63
2023/03/17 08:46:19;;;;;;;0.20;0.20;;;;;;;17.44;24.00;100577.63;5054611;28;20036;-63
2023/03/17 08:48:47;;;;;;;0.20;0.20;;;;;;;17.97;23.46;100582.47;5055753;28;20051;-61
2023/03/17 08:51:16;;;;;;;0.20;0.20;;;;;;;17.53;23.29;100580.84;5054157;28;20534;-61
2023/03/17 08:53:45;;;;;;;0.20;0.20;;;;;;;18.11;22.30;100579.66;5054629;28;20036;-61
2023/03/17 08:56:10;;;;;;;0.20;0.20;;;;;;;16.29;24.68;100581.19;5059292;28;20029;-63
2023/03/17 08:58:38;;;;;;;0.20;0.20;;;;;;;17.65;23.78;100577.63;5059110;28;20060;-64
2023/03/17 09:01:05;;;;;;;0.20;0.20;;;;;;;18.07;23.13;100587.28;5060516;28;20383;-65
2023/03/17 09:03:34;;;;;;;0.20;0.20;;;;;;;17.74;23.18;100585.72;5061199;28;20039;-62
2023/03/17 09:06:04;;;;;;;0.20;0.20;;;;;;;17.40;24.32;100571.97;5057351;28;20185;-65
2023/03/17 09:08:39;;;;;;;0.20;0.20;;;;;;;17.53;23.91;100569.59;5058393;28;20040;-61
2023/03/17 09:11:06;;;;;;;0.20;0.20;;;;;;;16.11;25.42;100575.47;5059099;28;20116;-70
2023/03/17 09:13:37;;;;;;;0.20;0.20;;;;;;;16.21;25.13;100583.97;5057670;28;20039;-61
2023/03/17 09:16:04;;;;;;;0.20;0.20;;;;;;;16.58;24.30;100576.53;5058252;28;20025;-62
2023/03/17 09:18:31;;;;;;;0.20;0.20;;;;;;;16.55;24.69;100572.50;5057738;28;20493;-61
2023/03/17 09:21:02;;;;;;;0.20;0.20;;;;;;;16.63;23.80;100574.16;5057837;28;20036;-63
2023/03/17 09:23:31;;;;;;;0.20;0.20;;;;;;;16.20;25.29;100579.53;5058294;28;20035;-63
2023/03/17 09:26:02;;;;;;;0.20;0.20;;;;;;;16.62;24.39;100566.09;5055735;28;20383;-62
2023/03/17 09:28:31;;;;;;;0.20;0.20;;;;;;;16.48;24.87;100566.84;5054620;28;20029;-62
2023/03/17 09:31:02;;;;;;;0.20;0.20;;;;;;;16.21;25.79;100569.13;5054217;28;20047;-62
2023/03/17 09:33:33;;;;;;;0.20;0.20;;;;;;;16.30;26.06;100560.31;5053909;28;20025;-61
2023/03/17 09:36:01;;;;;;;0.20;0.20;;;;;;;15.62;26.23;100560.66;5053735;28;20021;-62
2023/03/17 09:38:34;;;;;;;0.20;0.20;;;;;;;15.51;26.24;100565.38;5054464;28;20032;-61
2023/03/17 09:41:17;;;;;;;0.20;0.20;;;;;;;15.28;26.70;100575.94;5054504;28;20021;-61
2023/03/17 09:44:13;;;;;;;0.20;0.20;;;;;;;15.90;26.15;100567.69;5054164;28;20037;-61
2023/03/17 09:46:45;;;;;;;0.20;0.20;;;;;;;16.12;25.99;100568.66;5053495;28;20029;-62
2023/03/17 09:49:24;;;;;;;0.20;0.20;;;;;;;16.66;26.28;100564.91;5054160;28;20033;-61
2023/03/17 09:51:52;;;;;;;0.20;0.20;;;;;;;16.60;27.13;100551.66;5053842;28;20035;-62
2023/03/17 09:54:37;;;;;;;0.20;0.20;;;;;;;16.33;27.60;100557.53;5053944;28;20476;-64
2023/03/17 09:57:11;;;;;;;0.20;0.20;;;;;;;16.03;28.26;100563.38;5053075;28;20020;-61
2023/03/17 09:59:45;;;;;;;0.20;0.20;;;;;;;15.99;27.68;100562.56;5052774;28;20052;-62
2023/03/17 10:02:24;;;;;;;0.20;0.20;;;;;;;15.58;28.76;100557.00;5052917;28;20107;-61
2023/03/17 10:04:50;;;;;;;0.20;0.20;;;;;;;16.21;28.47;100564.31;5053090;28;20037;-61
2023/03/17 10:07:22;;;;;;;0.20;0.20;;;;;;;15.57;29.10;100563.00;5053137;28;20116;-61
2023/03/17 10:10:00;;;;;;;0.20;0.20;;;;;;;15.71;27.56;100558.34;5052929;28;20057;-61
2023/03/17 10:12:31;;;;;;;0.20;0.20;;;;;;;15.94;27.23;100551.69;5053101;28;20483;-61
2023/03/17 10:15:05;;;;;;;0.20;0.20;;;;;;;15.86;27.91;100552.84;5052761;28;20025;-61
2023/03/17 10:17:38;;;;;;;0.20;0.20;;;;;;;16.29;27.76;100553.91;5052693;28;20021;-61
2023/03/17 10:20:32;;;;;;;0.20;0.20;;;;;;;16.26;27.08;100557.53;5053225;28;20029;-61
2023/03/17 10:23:07;;;;;;;0.20;0.20;;;;;;;17.01;26.35;100560.66;5053992;28;20021;-61
2023/03/17 10:25:37;;;;;;;0.20;0.20;;;;;;;17.62;25.98;100560.72;5052495;28;20032;-62
2023/03/17 10:28:24;;;;;;;0.20;0.20;;;;;;;16.95;26.50;100551.00;5052130;28;20039;-61
2023/03/17 10:30:55;;;;;;;0.20;0.20;;;;;;;16.59;25.85;100556.47;5052563;28;20033;-61
2023/03/17 10:33:24;;;;;;;0.20;0.20;;;;;;;17.39;25.43;100552.69;5053011;28;20115;-61
2023/03/17 10:35:52;;;;;;;0.20;0.20;;;;;;;18.22;24.36;100565.56;5053161;28;20471;-62
2023/03/17 10:38:25;;;;;;;0.20;0.20;;;;;;;17.22;26.39;100555.09;5052789;28;20087;-61
2023/03/17 10:41:15;;;;;;;0.22;0.22;;;;;;;18.18;25.11;100559.91;5053054;28;20041;-62
2023/03/17 10:43:46;;;;;;;0.20;0.20;;;;;;;17.33;27.61;100543.06;5052410;28;20025;-61
2023/03/17 10:46:34;;;;;;;0.20;0.20;;;;;;;17.19;27.73;100550.25;5052391;28;20082;-61
2023/03/17 10:49:16;;;;;;;0.20;0.20;;;;;;;17.26;27.76;100549.47;5054878;28;20025;-61
2023/03/17 10:51:51;;;;;;;0.20;0.20;;;;;;;17.60;27.81;100538.63;5053519;28;20376;-61
2023/03/17 10:54:19;;;;;;;0.20;0.20;;;;;;;17.54;27.65;100543.06;5057552;28;20021;-61
2023/03/17 10:56:57;;;;;;;0.20;0.20;;;;;;;17.25;26.98;100542.22;5056403;28;20045;-61
2023/03/17 10:59:36;;;;;;;0.20;0.20;;;;;;;17.58;27.15;100540.22;5070239;28;20075;-61
2023/03/17 11:02:26;;;;;;;0.20;0.20;;;;;;;17.17;26.99;100532.97;5077064;28;20099;-62
2023/03/17 11:05:26;;;;;;;0.20;0.20;;;;;;;18.48;25.93;100534.09;5076411;28;20059;-63
2023/03/17 11:08:17;;;;;;;0.20;0.20;;;;;;;19.05;25.01;100535.81;5086903;28;20071;-62
2023/03/17 11:10:52;;;;;;;0.20;0.20;;;;;;;19.25;24.48;100531.25;5077165;28;20540;-60
2023/03/17 11:13:18;;;;;;;0.20;0.20;;;;;;;18.58;25.01;100533.22;5076303;28;20055;-63
2023/03/17 11:16:09;;;;;;;0.20;0.20;;;;;;;18.47;25.90;100531.66;5076422;28;20052;-60
2023/03/17 11:18:40;;;;;;;0.20;0.20;;;;;;;18.13;25.90;100523.72;5076462;28;20074;-60
2023/03/17 11:21:31;;;;;;;0.20;0.20;;;;;;;17.48;26.50;100517.34;5076145;28;20451;-63
2023/03/17 11:24:15;;;;;;;0.20;0.20;;;;;;;17.33;25.95;100529.00;5076239;28;20035;-60
2023/03/17 11:26:58;;;;;;;0.20;0.20;;;;;;;17.32;26.20;100516.13;5076847;28;20032;-61
2023/03/17 11:29:51;;;;;;;0.20;0.20;;;;;;;17.67;26.57;100524.56;5076860;28;20451;-61
2023/03/17 11:32:35;;;;;;;0.20;0.20;;;;;;;17.05;26.78;100524.94;5076377;28;20044;-61
2023/03/17 11:35:36;;;;;;;0.20;0.20;;;;;;;17.09;26.69;100506.06;5075840;28;20059;-61
2023/03/17 11:38:27;;;;;;;0.20;0.20;;;;;;;17.50;26.87;100519.75;5075521;28;20029;-61
2023/03/17 11:41:14;;;;;;;0.20;0.20;;;;;;;17.16;26.81;100500.47;5075514;28;20024;-61
2023/03/17 11:43:52;;;;;;;0.20;0.20;;;;;;;17.79;26.18;100501.69;5075753;28;20119;-61
2023/03/17 11:46:42;;;;;;;0.20;0.20;;;;;;;17.97;26.85;100498.03;5076557;28;20024;-61